Hauptseite
METAR-TAF:

METAR-TAF

Flughäfen :

Fliegerhorst Diepholz

Diepholz, Deutschland

Breite: 52-35N, Länge: 008-21E, Höhe: 39 m

Beobachtung

Neuester Wetterbericht von vor 1 Stunde und 2 Minuten, um 10:20 UTC
Wind 5 kt aus Süd
Temperatur 16°C
Luftfeuchtigkeit 77%
Luftdruck 1023 hPa
Sichtweite 10 km oder mehr
Leicht bewölkt in der Höhe von 1700 ft
Aufgelockert bewölkt in der Höhe von 29000 ft

METAR: ETND 281020Z 18005KT 9999 FEW017 SCT290 16/12 Q1023 BLU+BLU+

Zeit: 13:22 (11:22 UTC)

Prognose

Neuester Wetterbericht von vor 1 Stunde und 20 Minuten, um 10:02 UTC
Gültige Prognose vom 28 um 11 UTC bis 28 um 20 UTC
Wind 5 kt aus Südwest
Sichtweite 10 km oder mehr
Leicht bewölkt in der Höhe von 2000 ft
Aufgelockert bewölkt in der Höhe von 25000 ft

TAF: ETND 281002Z 2811/2820 22005KT 9999 NSW FEW020 SCT250 BY ETGL

Wetterbeobachtungen und Prognosen von mehr als 4000 Flughäfen (METAR und TAF Bericht).

Die verfügbaren Stationen werden durch gelbe und rote Markierungen auf der Karte dargestellt.

Führen Sie die Maus auf sie, um den Namen der Station zu sehen.

Darauf klicken, um die Beobachtung von Wetterbeobachtungen und Prognosen zu sehen.

Um die Karte zu ändern : klicken Sie auf den grünen Tasten mit einem schwarzen Kreuz Zum Vergrößern, auf den grünen Button mit einem Gedankenstrich zu verkleinern, oder auf die grünen Pfeile für benachbarte Karten.


METAR-TAF: